createdAt,value
2023-01-05T00:01:16.100Z,14.64
2023-01-05T00:05:18.869Z,14.42
2023-01-05T00:09:21.132Z,14.40
2023-01-05T00:13:33.721Z,14.55
2023-01-05T00:17:46.265Z,14.37
2023-01-05T00:22:01.387Z,14.39
2023-01-05T00:26:01.466Z,14.64
2023-01-05T00:30:03.105Z,14.50
2023-01-05T00:34:03.157Z,14.27
2023-01-05T00:38:05.963Z,14.23
2023-01-05T00:42:06.309Z,14.39
2023-01-05T00:46:06.494Z,14.33
2023-01-05T00:50:08.828Z,14.31
2023-01-05T00:54:11.911Z,14.19
2023-01-05T00:58:12.045Z,14.36
2023-01-05T01:02:13.547Z,14.24
2023-01-05T01:06:13.833Z,14.13
2023-01-05T01:10:16.869Z,14.10
2023-01-05T01:14:17.289Z,14.48
2023-01-05T01:18:17.631Z,14.49
2023-01-05T01:22:18.045Z,14.80
2023-01-05T01:26:21.194Z,14.81
2023-01-05T01:30:21.368Z,14.48
2023-01-05T01:34:23.389Z,14.53
2023-01-05T01:38:23.564Z,14.46
2023-01-05T01:42:26.863Z,14.61
2023-01-05T01:46:30.242Z,14.55
2023-01-05T01:50:36.461Z,14.57
2023-01-05T01:54:36.659Z,14.44
2023-01-05T01:58:40.391Z,14.77
2023-01-05T02:02:41.250Z,14.45
2023-01-05T02:06:42.264Z,14.78
2023-01-05T02:11:05.476Z,14.61
2023-01-05T02:15:27.168Z,14.33
2023-01-05T02:20:25.730Z,14.53
2023-01-05T02:25:09.738Z,14.49
2023-01-05T02:30:01.422Z,14.77
2023-01-05T02:34:26.870Z,14.92
2023-01-05T02:38:39.550Z,14.77
2023-01-05T02:42:44.674Z,14.93
2023-01-05T02:46:46.545Z,14.55
2023-01-05T02:51:06.753Z,14.57
2023-01-05T02:55:16.526Z,14.61
2023-01-05T02:59:26.688Z,14.54
2023-01-05T03:03:36.720Z,14.49
2023-01-05T03:07:45.406Z,14.38
2023-01-05T03:12:12.320Z,14.26
2023-01-05T03:16:18.802Z,14.49
2023-01-05T03:20:24.672Z,14.47
2023-01-05T03:24:42.842Z,14.66
2023-01-05T03:29:03.858Z,14.57
2023-01-05T03:33:30.214Z,14.53
2023-01-05T03:37:38.346Z,14.49
2023-01-05T03:41:42.354Z,14.31
2023-01-05T03:45:47.210Z,14.46
2023-01-05T03:49:54.887Z,14.47
2023-01-05T03:53:55.345Z,14.54
2023-01-05T03:57:58.093Z,14.49
2023-01-05T04:01:58.878Z,14.67
2023-01-05T04:05:59.427Z,14.63
2023-01-05T04:10:02.193Z,14.37
2023-01-05T04:14:05.716Z,14.71
2023-01-05T04:18:07.821Z,14.81
2023-01-05T04:22:08.030Z,14.93
2023-01-05T04:26:08.565Z,14.89
2023-01-05T04:30:14.146Z,15.17
2023-01-05T04:34:14.973Z,15.09
2023-01-05T04:38:17.960Z,15.12
2023-01-05T04:42:18.192Z,14.76
2023-01-05T04:46:27.211Z,15.25
2023-01-05T04:50:30.238Z,15.15
2023-01-05T04:54:32.266Z,15.19
2023-01-05T04:58:32.646Z,15.04
2023-01-05T05:02:36.211Z,15.16
2023-01-05T05:06:36.450Z,15.20
2023-01-05T05:10:36.718Z,14.68
2023-01-05T05:14:36.981Z,15.36
2023-01-05T05:18:39.840Z,15.18
2023-01-05T05:22:44.020Z,15.25
2023-01-05T05:26:47.325Z,15.34
2023-01-05T05:30:47.543Z,15.10
2023-01-05T05:34:50.321Z,14.99
2023-01-05T05:38:50.399Z,15.06
2023-01-05T05:42:50.506Z,15.15
2023-01-05T05:46:50.705Z,15.06
2023-01-05T05:50:53.607Z,14.91
2023-01-05T05:54:53.724Z,15.52
2023-01-05T05:59:00.794Z,15.18
2023-01-05T06:03:01.774Z,14.92
2023-01-05T06:07:04.498Z,15.16
2023-01-05T06:11:04.793Z,14.87
2023-01-05T06:15:04.977Z,15.34
2023-01-05T06:19:05.154Z,14.87
2023-01-05T06:23:07.934Z,14.77
2023-01-05T06:27:08.043Z,14.60
2023-01-05T06:31:08.886Z,14.34
2023-01-05T06:35:10.200Z,14.59
2023-01-05T06:39:12.935Z,14.42
2023-01-05T06:43:13.516Z,14.09
2023-01-05T06:47:14.363Z,13.78
2023-01-05T06:51:14.444Z,13.56
2023-01-05T06:55:17.231Z,13.90
2023-01-05T06:59:17.661Z,13.63
2023-01-05T07:03:17.912Z,13.78
2023-01-05T07:07:20.752Z,14.01
2023-01-05T07:11:23.449Z,14.10
2023-01-05T07:15:23.624Z,14.10
2023-01-05T07:19:23.778Z,13.82
2023-01-05T07:23:23.866Z,13.83
2023-01-05T07:27:26.691Z,14.15
2023-01-05T07:31:26.943Z,14.26
2023-01-05T07:35:27.151Z,13.99
2023-01-05T07:39:27.381Z,13.74
2023-01-05T07:43:30.503Z,13.99
2023-01-05T07:47:31.394Z,13.63
2023-01-05T07:51:31.547Z,14.02
2023-01-05T07:55:31.669Z,13.78
2023-01-05T07:59:34.392Z,13.77
2023-01-05T08:03:35.254Z,13.68
2023-01-05T08:07:35.479Z,14.12
2023-01-05T08:11:35.590Z,14.12
2023-01-05T08:15:38.392Z,14.36
2023-01-05T08:19:38.564Z,14.33
2023-01-05T08:23:40.544Z,14.16
2023-01-05T08:27:40.792Z,13.65
2023-01-05T08:31:44.165Z,13.70
2023-01-05T08:35:45.369Z,13.53
2023-01-05T08:39:46.023Z,13.67
2023-01-05T08:43:46.438Z,13.24
2023-01-05T08:47:49.142Z,14.07
2023-01-05T08:51:49.345Z,13.62
2023-01-05T08:55:51.749Z,13.85
2023-01-05T08:59:51.986Z,13.71
2023-01-05T09:03:54.876Z,13.40
2023-01-05T09:07:55.005Z,13.71
2023-01-05T09:11:55.155Z,13.56
2023-01-05T09:15:55.303Z,13.74
2023-01-05T09:19:58.033Z,14.09
2023-01-05T09:23:58.153Z,14.16
2023-01-05T09:27:58.235Z,14.25
2023-01-05T09:31:58.564Z,14.20
2023-01-05T09:36:01.578Z,14.12
2023-01-05T09:40:01.752Z,14.25
2023-01-05T09:44:08.175Z,14.48
2023-01-05T09:48:08.930Z,14.64
2023-01-05T09:52:14.133Z,14.66
2023-01-05T10:01:07.379Z,15.11
2023-01-05T10:05:09.620Z,14.54
2023-01-05T10:09:20.035Z,14.68
2023-01-05T10:13:31.494Z,14.79
2023-01-05T10:17:41.891Z,15.14
2023-01-05T10:22:00.304Z,14.81
2023-01-05T10:26:15.565Z,14.86
2023-01-05T10:30:25.548Z,15.21
2023-01-05T10:34:43.511Z,15.18
2023-01-05T10:38:58.972Z,14.89
2023-01-05T10:43:44.027Z,15.30
2023-01-05T10:47:46.437Z,15.07
2023-01-05T10:51:54.480Z,14.59
2023-01-05T10:56:06.104Z,14.84
2023-01-05T11:00:17.824Z,14.65
2023-01-05T11:04:37.208Z,14.90
2023-01-05T11:08:38.466Z,14.74
2023-01-05T11:12:38.763Z,15.05
2023-01-05T11:16:41.550Z,14.67
2023-01-05T11:20:41.843Z,15.49
2023-01-05T11:24:41.997Z,15.47
2023-01-05T11:28:46.110Z,15.78
2023-01-05T11:32:50.805Z,15.13
2023-01-05T11:36:59.150Z,15.18
2023-01-05T11:41:04.196Z,14.91
2023-01-05T11:45:10.600Z,14.91
2023-01-05T11:49:13.851Z,14.72
2023-01-05T11:53:29.785Z,15.21
2023-01-05T11:57:30.144Z,15.00
2023-01-05T12:02:01.425Z,14.81
2023-01-05T12:06:23.261Z,14.78
2023-01-05T12:10:55.685Z,14.93
2023-01-05T12:15:26.155Z,15.65
2023-01-05T12:20:04.731Z,15.38
2023-01-05T12:24:55.499Z,15.58
2023-01-05T12:34:44.301Z,15.47
2023-01-05T12:38:57.509Z,15.37
2023-01-05T12:43:07.707Z,15.84
2023-01-05T12:47:36.983Z,15.23
2023-01-05T12:51:46.075Z,15.91
2023-01-05T12:55:52.940Z,15.90
2023-01-05T13:00:06.215Z,16.46
2023-01-05T13:04:15.659Z,17.52
2023-01-05T13:08:23.598Z,18.16
2023-01-05T13:12:24.100Z,17.74
2023-01-05T13:16:32.703Z,16.91
2023-01-05T13:20:43.662Z,16.33
2023-01-05T13:24:55.230Z,15.54
2023-01-05T13:29:00.571Z,15.40
2023-01-05T13:33:45.131Z,15.32
2023-01-05T13:38:42.140Z,15.56
2023-01-05T13:43:13.950Z,15.31
2023-01-05T13:47:46.212Z,14.92
2023-01-05T13:51:59.554Z,15.10
2023-01-05T13:56:05.192Z,15.04
2023-01-05T14:00:12.451Z,15.38
2023-01-05T14:04:24.134Z,15.52
2023-01-05T14:08:42.681Z,15.39
2023-01-05T14:12:51.592Z,15.32
2023-01-05T14:16:54.829Z,15.37
2023-01-05T14:20:56.391Z,15.16
2023-01-05T14:25:00.005Z,14.86
2023-01-05T14:29:00.205Z,14.91
2023-01-05T14:33:08.650Z,14.93
2023-01-05T14:37:19.488Z,14.92
2023-01-05T14:41:28.432Z,14.62
2023-01-05T14:45:35.524Z,14.69
2023-01-05T14:49:40.843Z,14.41
2023-01-05T14:53:47.180Z,14.85
2023-01-05T14:57:58.201Z,14.68
2023-01-05T15:02:03.970Z,14.69
2023-01-05T15:06:20.951Z,14.40
2023-01-05T15:10:49.811Z,14.77
2023-01-05T15:15:44.277Z,14.83
2023-01-05T15:20:08.268Z,14.52
2023-01-05T15:25:01.275Z,14.83
2023-01-05T15:29:52.459Z,14.50
2023-01-05T15:34:07.856Z,14.34
2023-01-05T15:38:24.436Z,14.38
2023-01-05T15:42:32.497Z,14.14
2023-01-05T15:46:36.809Z,14.24
2023-01-05T15:50:48.741Z,13.78
2023-01-05T15:55:03.975Z,13.51
2023-01-05T15:59:06.821Z,13.58
2023-01-05T16:03:24.022Z,13.76
2023-01-05T16:07:26.844Z,13.75
2023-01-05T16:11:33.507Z,14.34
2023-01-05T16:15:41.366Z,14.35
2023-01-05T16:19:46.955Z,14.40
2023-01-05T16:23:58.341Z,14.32
2023-01-05T16:28:03.602Z,14.69
2023-01-05T16:32:04.483Z,14.63
2023-01-05T16:36:16.030Z,14.15
2023-01-05T16:40:25.081Z,13.92
2023-01-05T16:44:25.911Z,13.91
2023-01-05T16:48:50.036Z,13.16
2023-01-05T16:52:55.693Z,13.00
2023-01-05T16:57:02.346Z,13.07
2023-01-05T17:01:27.829Z,12.97
2023-01-05T17:05:31.600Z,13.41
2023-01-05T17:09:35.041Z,13.46
2023-01-05T17:13:45.084Z,13.38
2023-01-05T17:17:45.135Z,13.44
2023-01-05T17:21:49.711Z,13.57
2023-01-05T17:30:22.784Z,13.56
2023-01-05T17:34:23.387Z,13.71
2023-01-05T17:38:23.619Z,13.40
2023-01-05T17:42:36.186Z,13.51
2023-01-05T17:46:43.367Z,13.58
2023-01-05T17:50:43.943Z,13.46
2023-01-05T17:54:44.336Z,13.69
2023-01-05T17:58:44.509Z,13.66
2023-01-05T18:02:47.249Z,13.48
2023-01-05T18:11:11.438Z,13.45
2023-01-05T18:15:14.328Z,13.79
2023-01-05T18:19:17.992Z,13.43
2023-01-05T18:23:18.159Z,13.34
2023-01-05T18:27:19.709Z,13.72
2023-01-05T18:31:20.164Z,13.67
2023-01-05T18:35:23.015Z,13.59
2023-01-05T18:39:23.180Z,13.64
2023-01-05T18:43:23.381Z,13.55
2023-01-05T18:47:23.462Z,13.80
2023-01-05T18:51:26.124Z,13.74
2023-01-05T18:55:26.610Z,13.50
2023-01-05T18:59:27.163Z,13.46
2023-01-05T19:03:27.274Z,13.58
2023-01-05T19:07:29.944Z,13.21
2023-01-05T19:11:30.913Z,13.38
2023-01-05T19:15:30.989Z,12.94
2023-01-05T19:19:31.214Z,13.26
2023-01-05T19:23:34.069Z,12.73
2023-01-05T19:27:34.194Z,13.01
2023-01-05T19:31:34.564Z,12.90
2023-01-05T19:35:34.703Z,12.89
2023-01-05T19:39:37.455Z,12.98
2023-01-05T19:43:40.652Z,12.77
2023-01-05T19:47:41.628Z,12.85
2023-01-05T19:51:41.742Z,12.96
2023-01-05T19:55:44.605Z,12.81
2023-01-05T19:59:44.694Z,12.79
2023-01-05T20:03:46.877Z,12.69
2023-01-05T20:07:46.962Z,12.84
2023-01-05T20:11:54.825Z,12.74
2023-01-05T20:16:04.437Z,12.79
2023-01-05T20:20:04.628Z,12.43
2023-01-05T20:24:06.660Z,12.34
2023-01-05T20:28:09.450Z,12.34
2023-01-05T20:32:13.572Z,12.39
2023-01-05T20:36:13.885Z,12.13
2023-01-05T20:40:14.486Z,12.24
2023-01-05T20:44:21.593Z,12.19
2023-01-05T20:48:21.786Z,12.11
2023-01-05T20:52:21.915Z,12.16
2023-01-05T20:56:26.913Z,12.22
2023-01-05T21:00:29.611Z,11.98
2023-01-05T21:04:32.461Z,12.18
2023-01-05T21:08:32.791Z,12.42
2023-01-05T21:12:32.910Z,12.55
2023-01-05T21:16:40.101Z,12.51
2023-01-05T21:20:44.799Z,12.71
2023-01-05T21:24:45.408Z,13.02
2023-01-05T21:28:47.185Z,13.13
2023-01-05T21:32:50.786Z,13.04
2023-01-05T21:36:51.091Z,12.93
2023-01-05T21:40:51.187Z,13.06
2023-01-05T21:44:51.269Z,13.10
2023-01-05T21:48:53.977Z,13.03
2023-01-05T21:53:06.534Z,13.01
2023-01-05T21:57:07.114Z,13.03
2023-01-05T22:01:07.409Z,12.89
2023-01-05T22:05:11.435Z,12.85
2023-01-05T22:09:11.459Z,12.91
2023-01-05T22:13:11.714Z,13.00
2023-01-05T22:17:12.463Z,13.11
2023-01-05T22:21:15.545Z,13.25
2023-01-05T22:25:15.574Z,13.38
2023-01-05T22:29:16.787Z,13.71
2023-01-05T22:33:16.870Z,13.60
2023-01-05T22:37:19.571Z,13.43
2023-01-05T22:41:22.615Z,13.35
2023-01-05T22:45:22.818Z,13.28
2023-01-05T22:49:23.022Z,13.23
2023-01-05T22:53:25.767Z,13.27
2023-01-05T22:57:25.967Z,13.15
2023-01-05T23:01:28.799Z,13.38
2023-01-05T23:05:29.357Z,13.32
2023-01-05T23:09:32.110Z,13.28
2023-01-05T23:13:32.452Z,13.25
2023-01-05T23:17:32.549Z,13.23
2023-01-05T23:21:33.178Z,13.23
2023-01-05T23:25:36.814Z,13.24
2023-01-05T23:29:37.013Z,13.32
2023-01-05T23:33:39.877Z,13.46
2023-01-05T23:37:39.952Z,13.42
2023-01-05T23:41:42.631Z,13.34
2023-01-05T23:45:43.622Z,13.54
2023-01-05T23:49:43.718Z,13.48
2023-01-05T23:53:45.619Z,13.58
2023-01-05T23:57:48.508Z,13.52
